Home > Products > Valid Products > TAF

000
FTUS45 KGGW 182000 AAA
TAFGGW
TAF AMD
KGGW 182003Z 1820/1918 12007KT P6SM SCT005
     FM190600 VRB05KT 3SM BR OVC012
     FM191200 VRB05KT 3SM BR OVC008
     FM191700 VRB06KT 3SM BR OVC015=



000
FTUS45 KGGW 181900 AAA
TAFSDY
TAF AMD
KSDY 181945Z 1820/1918 VRB03KT P6SM OVC010
     FM182200 20007KT P6SM SCT015
     FM190300 VRB03KT P6SM BKN035
      AMD LTD TO CLD VIS AND WIND=



000
FTUS45 KGGW 181700
TAFGDV
TAF
KGDV 181724Z 1818/1918 19007KT P6SM SCT015
     FM190300 VRB03KT P6SM BKN035
      AMD LTD TO CLD VIS AND WIND=



000
FTUS45 KGGW 181700
TAFOLF
TAF
KOLF 181724Z 1818/1918 VRB03KT 6SM BR OVC008
     FM182100 VRB03KT P6SM OVC015
     FM191000 VRB03KT P6SM OVC008=



000
FTUS45 KGGW 181700
TAFGDV
TAF
KGDV 181724Z 1818/1918 19007KT P6SM SCT015
     FM190300 VRB03KT P6SM BKN035
      AMD LTD TO CLD VIS AND WIND=



000
FTUS45 KGGW 181700
TAFOLF
TAF
KOLF 181724Z 1818/1918 VRB03KT 6SM BR OVC008
     FM182100 VRB03KT P6SM OVC015
     FM191000 VRB03KT P6SM OVC008=



000
FTUS45 KGGW 181700
TAFGGW
TAF
KGGW 181724Z 1818/1918 12007KT 1SM BR OVC003
     FM190600 VRB05KT 3SM BR OVC012
     FM191200 VRB05KT 3SM BR OVC008
     FM191700 VRB06KT 3SM BR OVC015=



000
FTUS45 KGGW 181700
TAFSDY
TAF
KSDY 181724Z 1818/1918 VRB03KT P6SM OVC015
     FM182200 20007KT P6SM SCT015
     FM190300 VRB03KT P6SM BKN035
      AMD LTD TO CLD VIS AND WIND=



000
FTUS45 KGGW 181600 AAA
TAFGGW
TAF AMD
KGGW 181612Z 1816/1912 12007KT 2SM BR OVC004
     FM182100 VRB05KT P6SM OVC015
     FM190100 VRB05KT P6SM SCT015=



000
FTUS45 KGGW 181600 AAB
TAFSDY
TAF AMD
KSDY 181612Z 1816/1912 VRB06KT P6SM OVC020
     FM181800 VRB03KT P6SM OVC008
     FM190300 VRB03KT P6SM OVC015
      AMD LTD TO CLD VIS AND WIND=



000
FTUS45 KGGW 181500 AAB
TAFOLF
TAF AMD
KOLF 181521Z 1815/1912 VRB03KT P6SM OVC005
     FM190000 VRB03KT P6SM OVC015=



000
FTUS45 KGGW 181500 AAB
TAFOLF
TAF AMD
KOLF 181521Z 1815/1912 VRB03KT P6SM OVC005
     FM190000 VRB03KT P6SM OVC015=



000
FTUS45 KGGW 181400 AAA
TAFSDY
TAF AMD
KSDY 181403Z 1814/1912 VRB06KT P6SM OVC020
     FM181600 VRB03KT P6SM OVC008
     FM190300 VRB03KT P6SM OVC015
      AMD LTD TO CLD VIS AND WIND=



000
FTUS45 KGGW 181400 AAA
TAFSDY
TAF AMD
KSDY 181403Z 1814/1912 VRB06KT P6SM OVC020
     FM181600 VRB03KT P6SM OVC008
     FM190300 VRB03KT P6SM OVC015
      AMD LTD TO CLD VIS AND WIND=



000
FTUS45 KGGW 181200 AAA
TAFOLF
TAF AMD
KOLF 181233Z 1813/1912 VRB06KT P6SM OVC010
     FM181500 VRB03KT P6SM OVC005
     FM190000 VRB03KT P6SM OVC015=



000
FTUS45 KGGW 181200 AAA
TAFOLF
TAF AMD
KOLF 181233Z 1813/1912 VRB06KT P6SM OVC010
     FM181500 VRB03KT P6SM OVC005
     FM190000 VRB03KT P6SM OVC015=



000
FTUS45 KGGW 181200 AAA
TAFOLF
TAF AMD
KOLF 181233Z 1813/1912 VRB06KT P6SM OVC010
     FM181500 VRB03KT P6SM OVC005
     FM190000 VRB03KT P6SM OVC015=



000
FTUS45 KGGW 181200 AAA
TAFOLF
TAF AMD
KOLF 181233Z 1813/1912 VRB06KT P6SM OVC010
     FM181500 VRB03KT P6SM OVC005
     FM190000 VRB03KT P6SM OVC015=



000
FTUS45 KGGW 181100
TAFGDV
TAF
KGDV 181124Z 1812/1912 VRB06KT P6SM OVC012
     FM181500 VRB03KT P6SM OVC005
     FM190000 VRB03KT P6SM OVC015
      AMD LTD TO CLD VIS AND WIND=



000
FTUS45 KGGW 181100
TAFOLF
TAF
KOLF 181124Z 1812/1912 VRB06KT P6SM OVC007
     FM181400 VRB03KT P6SM OVC004
     FM190000 VRB03KT P6SM OVC015=



000
FTUS45 KGGW 181100
TAFOLF
TAF
KOLF 181124Z 1812/1912 VRB06KT P6SM OVC007
     FM181400 VRB03KT P6SM OVC004
     FM190000 VRB03KT P6SM OVC015=



000
FTUS45 KGGW 181100
TAFGGW
TAF
KGGW 181124Z 1812/1912 12007KT P6SM OVC009
     FM181400 VRB05KT P6SM OVC005
     FM181800 VRB05KT P6SM OVC015
     FM190100 VRB05KT P6SM SCT015=



000
FTUS45 KGGW 181100
TAFGDV
TAF
KGDV 181124Z 1812/1912 VRB06KT P6SM OVC012
     FM181500 VRB03KT P6SM OVC005
     FM190000 VRB03KT P6SM OVC015
      AMD LTD TO CLD VIS AND WIND=



000
FTUS45 KGGW 181100
TAFSDY
TAF
KSDY 181124Z 1812/1912 VRB06KT P6SM OVC013
     FM181400 VRB03KT P6SM OVC007
     FM190300 VRB03KT P6SM OVC015
      AMD LTD TO CLD VIS AND WIND=



000
FTUS45 KGGW 180500
TAFOLF
TAF
KOLF 180520Z 1806/1906 VRB06KT P6SM OVC015
     FM181400 VRB03KT P6SM OVC004
     FM190000 VRB03KT P6SM OVC015=



000
FTUS45 KGGW 180500
TAFGGW
TAF
KGGW 180520Z 1806/1906 12007KT P6SM OVC011
     FM181400 VRB05KT P6SM OVC004
     FM181800 VRB05KT P6SM OVC015=



000
FTUS45 KGGW 180500
TAFGDV
TAF
KGDV 180520Z 1806/1906 VRB06KT P6SM OVC012
     FM181200 VRB03KT P6SM OVC005
     FM190000 VRB03KT P6SM OVC015
      AMD LTD TO CLD VIS AND WIND=



000
FTUS45 KGGW 180500
TAFOLF
TAF
KOLF 180520Z 1806/1906 VRB06KT P6SM OVC015
     FM181400 VRB03KT P6SM OVC004
     FM190000 VRB03KT P6SM OVC015=



000
FTUS45 KGGW 180500
TAFGDV
TAF
KGDV 180520Z 1806/1906 VRB06KT P6SM OVC012
     FM181200 VRB03KT P6SM OVC005
     FM190000 VRB03KT P6SM OVC015
      AMD LTD TO CLD VIS AND WIND=



000
FTUS45 KGGW 180500
TAFSDY
TAF
KSDY 180520Z 1806/1906 VRB06KT P6SM OVC013
     FM181400 VRB03KT P6SM OVC007
     FM190300 VRB03KT P6SM OVC015
      AMD LTD TO CLD VIS AND WIND=



000
FTUS45 KGGW 172300
TAFSDY
TAF
KSDY 172320Z 1800/1824 14008KT P6SM OVC012
     FM180900 VRB04KT 6SM BR BKN017
     FM181500 VRB03KT P6SM BKN024
      AMD LTD TO CLD VIS AND WIND=



000
FTUS45 KGGW 172300
TAFGDV
TAF
KGDV 172320Z 1800/1824 VRB06KT P6SM OVC014
     FM180900 00000KT P6SM BKN018
     FM181500 VRB03KT P6SM BKN013
      AMD LTD TO CLD VIS AND WIND=



000
FTUS45 KGGW 172300
TAFGDV
TAF
KGDV 172320Z 1800/1824 VRB06KT P6SM OVC014
     FM180900 00000KT P6SM BKN018
     FM181500 VRB03KT P6SM BKN013
      AMD LTD TO CLD VIS AND WIND=



000
FTUS45 KGGW 172300
TAFOLF
TAF
KOLF 172320Z 1800/1824 VRB05KT P6SM OVC010=



000
FTUS45 KGGW 172300
TAFGGW
TAF
KGGW 172320Z 1800/1824 10007KT P6SM VCSH OVC012
     FM180600 VRB05KT P6SM BKN015=



000
FTUS45 KGGW 172300
TAFOLF
TAF
KOLF 172320Z 1800/1824 VRB05KT P6SM OVC010=



000
FTUS45 KGGW 171700
TAFOLF
TAF
KOLF 171720Z 1718/1818 11009KT P6SM OVC009
     FM180000 VRB05KT P6SM OVC023=



000
FTUS45 KGGW 171700
TAFGDV
TAF
KGDV 171720Z 1718/1818 14009KT P6SM BKN008
     FM180000 VRB05KT P6SM OVC030
      AMD LTD TO CLD VIS AND WIND=



000
FTUS45 KGGW 171700
TAFSDY
TAF
KSDY 171720Z 1718/1818 14011KT P6SM BKN010
     FM180000 13008KT P6SM OVC030
     FM181200 VRB04KT P6SM BKN020
      AMD LTD TO CLD VIS AND WIND=



000
FTUS45 KGGW 171700
TAFGDV
TAF
KGDV 171720Z 1718/1818 14009KT P6SM BKN008
     FM180000 VRB05KT P6SM OVC030
      AMD LTD TO CLD VIS AND WIND=



000
FTUS45 KGGW 171700
TAFOLF
TAF
KOLF 171720Z 1718/1818 11009KT P6SM OVC009
     FM180000 VRB05KT P6SM OVC023=



000
FTUS45 KGGW 171700
TAFGGW
TAF
KGGW 171720Z 1718/1818 11011KT P6SM OVC006
     FM180300 10007KT P6SM OVC014
     FM181200 00000KT P6SM BKN010=



000
FTUS45 KGGW 171100
TAFGDV
TAF
KGDV 171137Z 1712/1812 VRB06KT P6SM OVC008
     FM172000 VRB06KT P6SM VCSH SCT008 OVC020
     FM181000 17004KT P6SM SCT015 BKN030
      AMD LTD TO CLD VIS AND WIND=



000
FTUS45 KGGW 171100
TAFSDY
TAF
KSDY 171137Z 1712/1812 14009KT P6SM OVC011
     FM172000 VRB05KT P6SM SCT013 OVC025
      AMD LTD TO CLD VIS AND WIND=



000
FTUS45 KGGW 171100
TAFGDV
TAF
KGDV 171137Z 1712/1812 VRB06KT P6SM OVC008
     FM172000 VRB06KT P6SM VCSH SCT008 OVC020
     FM181000 17004KT P6SM SCT015 BKN030
      AMD LTD TO CLD VIS AND WIND=



000
FTUS45 KGGW 171100
TAFGGW
TAF
KGGW 171137Z 1712/1812 12014KT P6SM OVC005
     FM172000 12009KT P6SM VCSH SCT008 OVC015
     FM181000 11006KT P6SM SCT015 BKN030=



000
FTUS45 KGGW 171100
TAFOLF
TAF
KOLF 171137Z 1712/1812 14008KT P6SM OVC008
     FM172100 11006KT P6SM VCSH SCT010 OVC020
     FM181000 VRB03KT P6SM SCT015 BKN030=



000
FTUS45 KGGW 171100
TAFOLF
TAF
KOLF 171137Z 1712/1812 14008KT P6SM OVC008
     FM172100 11006KT P6SM VCSH SCT010 OVC020
     FM181000 VRB03KT P6SM SCT015 BKN030=



000
FTUS45 KGGW 170900 AAA
TAFGDV
TAF AMD
KGDV 170951Z 1710/1806 13007KT P6SM OVC006
     FM171900 15006KT P6SM SCT008 OVC020
      AMD LTD TO CLD VIS AND WIND=



000
FTUS45 KGGW 170900 AAA
TAFGDV
TAF AMD
KGDV 170951Z 1710/1806 13007KT P6SM OVC006
     FM171900 15006KT P6SM SCT008 OVC020
      AMD LTD TO CLD VIS AND WIND=



000
FTUS45 KGGW 170900 AAA
TAFGDV
TAF AMD
KGDV 170951Z 1710/1806 13007KT P6SM OVC006
     FM171900 15006KT P6SM SCT008 OVC020
      AMD LTD TO CLD VIS AND WIND=



000
FTUS45 KGGW 170900 AAA
TAFGDV
TAF AMD
KGDV 170951Z 1710/1806 13007KT P6SM OVC006
     FM171900 15006KT P6SM SCT008 OVC020
      AMD LTD TO CLD VIS AND WIND=



000
FTUS45 KGGW 170900 AAA
TAFSDY
TAF AMD
KSDY 170950Z 1710/1806 12008KT P6SM OVC013
     FM171900 08006KT P6SM SCT013 OVC030
      AMD LTD TO CLD VIS AND WIND=



000
FTUS45 KGGW 170900 AAA
TAFSDY
TAF AMD
KSDY 170950Z 1710/1806 12008KT P6SM OVC013
     FM171900 08006KT P6SM SCT013 OVC030
      AMD LTD TO CLD VIS AND WIND=



000
FTUS45 KGGW 170900 AAA
TAFOLF
TAF AMD
KOLF 170946Z 1710/1806 13006KT P6SM OVC008
     FM171900 08006KT P6SM SCT009 OVC020=



000
FTUS45 KGGW 170900 AAA
TAFOLF
TAF AMD
KOLF 170946Z 1710/1806 13006KT P6SM OVC008
     FM171900 08006KT P6SM SCT009 OVC020=



000
FTUS45 KGGW 170900 AAA
TAFGGW
TAF AMD
KGGW 170940Z 1710/1806 11013KT P6SM OVC006
     FM172000 12009KT P6SM SCT008 OVC015=



000
FTUS45 KGGW 170500
TAFGDV
TAF
KGDV 170534Z 1706/1806 13007KT P6SM OVC009
      TEMPO 1706/1710 VRB04KT 2SM BR OVC007
     FM171900 15006KT P6SM SCT010 OVC025
      AMD LTD TO CLD VIS AND WIND=



000
FTUS45 KGGW 170500
TAFOLF
TAF
KOLF 170534Z 1706/1806 10008KT P6SM OVC010
      TEMPO 1708/1712 09004KT 1SM BR OVC005
     FM171900 08006KT P6SM SCT010 OVC025=



000
FTUS45 KGGW 170500
TAFGGW
TAF
KGGW 170534Z 1706/1806 11013KT P6SM OVC007
      TEMPO 1708/1712 2SM BR OVC005
     FM172000 12009KT P6SM SCT010 OVC025=



000
FTUS45 KGGW 170500
TAFSDY
TAF
KSDY 170534Z 1706/1806 12008KT P6SM OVC013
      TEMPO 1708/1712 VRB04KT 3SM BR OVC009
     FM171900 08006KT P6SM SCT013 OVC030
      AMD LTD TO CLD VIS AND WIND=



000
FTUS45 KGGW 162300
TAFGDV
TAF
KGDV 162320Z 1700/1724 VRB05KT P6SM BKN022 BKN030
     FM170600 VRB05KT 5SM BR BKN030
     FM171800 14008KT P6SM BKN030
      AMD LTD TO CLD VIS AND WIND=



000
FTUS45 KGGW 162300
TAFGDV
TAF
KGDV 162320Z 1700/1724 VRB05KT P6SM BKN022 BKN030
     FM170600 VRB05KT 5SM BR BKN030
     FM171800 14008KT P6SM BKN030
      AMD LTD TO CLD VIS AND WIND=



000
FTUS45 KGGW 162300
TAFGGW
TAF
KGGW 162320Z 1700/1724 12009KT P6SM BKN019 BKN030=



000
FTUS45 KGGW 162300
TAFOLF
TAF
KOLF 162320Z 1700/1724 VRB06KT P6SM BKN020 BKN030=



000
FTUS45 KGGW 162300
TAFSDY
TAF
KSDY 162320Z 1700/1724 12007KT P6SM BKN022 BKN030
     FM170600 14008KT 5SM BR BKN030
     FM171200 13008KT P6SM BKN030
      AMD LTD TO CLD VIS AND WIND=



000
FTUS45 KGGW 162300
TAFOLF
TAF
KOLF 162320Z 1700/1724 VRB06KT P6SM BKN020 BKN030=



000
FTUS45 KGGW 161700
TAFOLF
TAF
KOLF 161720Z 1618/1718 VRB05KT P6SM BKN012 BKN023
     FM170600 VRB06KT P6SM FEW024 SCT028=



000
FTUS45 KGGW 161700
TAFGDV
TAF
KGDV 161720Z 1618/1718 VRB05KT P6SM BKN014 BKN026
     FM170600 VRB05KT P6SM SCT030
     FM171200 VRB05KT P6SM BKN025
      AMD LTD TO CLD VIS AND WIND=



000
FTUS45 KGGW 161700
TAFOLF
TAF
KOLF 161720Z 1618/1718 VRB05KT P6SM BKN012 BKN023
     FM170600 VRB06KT P6SM FEW024 SCT028=



000
FTUS45 KGGW 161700
TAFSDY
TAF
KSDY 161720Z 1618/1718 14007KT P6SM BKN011 BKN024
     FM170600 13008KT P6SM SCT030
      AMD LTD TO CLD VIS AND WIND=



000
FTUS45 KGGW 161700
TAFGGW
TAF
KGGW 161720Z 1618/1718 12010KT P6SM BKN013 BKN020=



000
FTUS45 KGGW 161700
TAFGDV
TAF
KGDV 161720Z 1618/1718 VRB05KT P6SM BKN014 BKN026
     FM170600 VRB05KT P6SM SCT030
     FM171200 VRB05KT P6SM BKN025
      AMD LTD TO CLD VIS AND WIND=



000
FTUS45 KGGW 161100 RRA
TAFOLF
TAF
KOLF 161145Z 1612/1712 00000KT P6SM OVC018
     FM161500 VRB06KT P6SM OVC014
     FM170200 09005KT P6SM SCT010=



000
FTUS45 KGGW 161100 RRA
TAFGDV
TAF
KGDV 161145Z 1612/1712 00000KT P6SM OVC014
     FM161800 VRB06KT 6SM BR OVC009
     FM170000 12006KT P6SM SCT010
      AMD LTD TO CLD VIS AND WIND=



000
FTUS45 KGGW 161100 RRA
TAFSDY
TAF
KSDY 161145Z 1612/1712 00000KT P6SM OVC019
     FM161800 VRB06KT P6SM OVC012
      AMD LTD TO CLD VIS AND WIND=



000
FTUS45 KGGW 161100 RRA
TAFGGW
TAF
KGGW 161145Z 1612/1712 VRB05KT P6SM OVC014
     FM161700 11009KT 6SM BR OVC009
     FM162300 12010KT P6SM SCT010=



000
FTUS45 KGGW 161100 RRA
TAFOLF
TAF
KOLF 161145Z 1612/1712 00000KT P6SM OVC018
     FM161500 VRB06KT P6SM OVC014
     FM170200 09005KT P6SM SCT010=



000
FTUS45 KGGW 161100 RRA
TAFGDV
TAF
KGDV 161145Z 1612/1712 00000KT P6SM OVC014
     FM161800 VRB06KT 6SM BR OVC009
     FM170000 12006KT P6SM SCT010
      AMD LTD TO CLD VIS AND WIND=



000
FTUS45 KGGW 160500
TAFGDV
TAF
KGDV 160520Z 1606/1706 00000KT 6SM BR OVC015
     FM161800 VRB06KT P6SM OVC030
      AMD LTD TO CLD VIS AND WIND=



000
FTUS45 KGGW 160500
TAFGDV
TAF
KGDV 160520Z 1606/1706 00000KT 6SM BR OVC015
     FM161800 VRB06KT P6SM OVC030
      AMD LTD TO CLD VIS AND WIND=



000
FTUS45 KGGW 160500
TAFOLF
TAF
KOLF 160520Z 1606/1706 00000KT 6SM BR OVC025
     FM161500 VRB06KT P6SM OVC015=



000
FTUS45 KGGW 160500
TAFOLF
TAF
KOLF 160520Z 1606/1706 00000KT 6SM BR OVC025
     FM161500 VRB06KT P6SM OVC015=



000
FTUS45 KGGW 160500
TAFSDY
TAF
KSDY 160520Z 1606/1706 00000KT 6SM BR OVC019
     FM161800 VRB06KT P6SM OVC030
      AMD LTD TO CLD VIS AND WIND=



000
FTUS45 KGGW 160500
TAFGGW
TAF
KGGW 160520Z 1606/1706 VRB05KT 6SM BR OVC015
     FM161500 11009KT 6SM BR OVC009
     FM161800 12010KT P6SM BKN026=



000
FTUS45 KGGW 160300 AAA
TAFGGW
TAF AMD
KGGW 160323Z 1603/1624 VRB03KT P6SM OVC016
     FM160600 VRB05KT 6SM BR OVC020
     FM161500 11009KT 6SM BR OVC009
     FM161800 12010KT P6SM BKN026=



000
FTUS45 KGGW 152300
TAFGDV
TAF
KGDV 152329Z 1600/1624 33007KT P6SM OVC012
     FM161000 VRB04KT P6SM BCFG OVC009
     FM161700 12007KT P6SM FEW010
      AMD LTD TO CLD VIS AND WIND=



000
FTUS45 KGGW 152300
TAFOLF
TAF
KOLF 152329Z 1600/1624 VRB04KT P6SM OVC020
     FM160600 VRB03KT P6SM BCFG OVC010
     FM161700 09008KT P6SM FEW020=



000
FTUS45 KGGW 152300
TAFGDV
TAF
KGDV 152329Z 1600/1624 33007KT P6SM OVC012
     FM161000 VRB04KT P6SM BCFG OVC009
     FM161700 12007KT P6SM FEW010
      AMD LTD TO CLD VIS AND WIND=



000
FTUS45 KGGW 152300
TAFSDY
TAF
KSDY 152329Z 1600/1624 33011KT P6SM OVC015
     FM160600 VRB04KT 5SM BR OVC020
     FM161200 VRB05KT P6SM OVC011
      AMD LTD TO CLD VIS AND WIND=



000
FTUS45 KGGW 152300
TAFGGW
TAF
KGGW 152329Z 1600/1624 VRB05KT P6SM OVC017
     FM160400 11008KT P6SM BCFG OVC008
     FM161600 13008KT P6SM FEW010=



000
FTUS45 KGGW 152300
TAFOLF
TAF
KOLF 152329Z 1600/1624 VRB04KT P6SM OVC020
     FM160600 VRB03KT P6SM BCFG OVC010
     FM161700 09008KT P6SM FEW020=



    US Dept of Commerce
    National Oceanic and Atmospheric Administration
    National Weather Service
    1325 East West Highway
    Silver Spring, MD 20910
    Page Author: NWS Internet Services Team
Disclaimer
Information Quality
Credits
Glossary
Privacy Policy
Freedom of Information Act (FOIA)
About Us
Career Opportunities